Time;durP1;ratioP1;P1;durP2;ratioP2;P2;SDS_P1;SDS_P2;PMS_P1;PMS_P2;Temp;Humidity;BMP_temperature;BMP_pressure;BME280_temperature;BME280_humidity;BME280_pressure;Samples;Min_cycle;Max_cycle;Signal;HPM_P1;HPM_P2
2022/04/22 00:00:37;;;;;;;0.20;0.20;;;8.60;99.90;;;8.63;100.00;99482.97;5039103;28;20212;-73
2022/04/22 00:03:06;;;;;;;0.20;0.20;;;8.60;99.90;;;8.61;100.00;99488.25;5041722;28;20207;-73
2022/04/22 00:05:35;;;;;;;0.28;0.28;;;8.60;99.90;;;8.60;100.00;99491.75;5045581;28;20218;-73
2022/04/22 00:08:04;;;;;;;0.20;0.20;;;8.60;99.90;;;8.50;100.00;99489.97;5047561;28;20227;-74
2022/04/22 00:10:32;;;;;;;0.20;0.20;;;8.60;99.90;;;8.34;100.00;99480.28;5040826;28;20683;-73
2022/04/22 00:13:01;;;;;;;0.20;0.20;;;8.60;99.90;;;8.18;100.00;99495.13;5045063;28;20222;-74
2022/04/22 00:15:29;;;;;;;0.20;0.20;;;8.40;99.90;;;8.10;100.00;99501.25;5037938;28;20318;-73
2022/04/22 00:17:57;;;;;;;0.20;0.20;;;8.40;99.90;;;7.95;100.00;99512.59;5035242;28;20225;-72
2022/04/22 00:20:25;;;;;;;0.20;0.20;;;8.30;99.90;;;7.91;100.00;99524.84;5032594;28;20222;-73
2022/04/22 00:22:53;;;;;;;0.13;0.13;;;8.20;99.90;;;7.93;100.00;99544.16;5045750;28;20705;-72
2022/04/22 00:25:21;;;;;;;0.20;0.20;;;8.10;99.90;;;7.91;100.00;99556.44;5039156;28;20218;-73
2022/04/22 00:27:49;;;;;;;0.20;0.20;;;8.10;99.90;;;7.92;100.00;99542.41;5035080;28;20210;-73
2022/04/22 00:30:17;;;;;;;0.35;0.35;;;8.00;99.90;;;7.84;100.00;99561.66;5011312;28;20204;-73
2022/04/22 00:32:45;;;;;;;0.20;0.20;;;8.00;99.90;;;7.89;100.00;99565.19;5043644;28;20203;-73
2022/04/22 00:35:13;;;;;;;0.20;0.20;;;8.00;99.90;;;7.80;100.00;99570.38;5045245;28;20199;-73
2022/04/22 00:37:42;;;;;;;0.30;0.30;;;7.90;99.90;;;7.75;100.00;99567.72;5024730;28;20211;-73
2022/04/22 00:40:10;;;;;;;0.20;0.20;;;7.80;99.90;;;7.84;100.00;99588.00;5031782;28;20202;-71
2022/04/22 00:42:39;;;;;;;0.20;0.20;;;7.80;99.90;;;7.78;100.00;99583.53;5046014;28;20199;-72
2022/04/22 00:45:09;;;;;;;0.20;0.20;;;7.80;99.90;;;7.74;100.00;99579.13;5035442;28;20199;-73
2022/04/22 00:47:37;;;;;;;0.30;0.30;;;7.80;99.90;;;7.64;100.00;99577.28;5027280;28;20206;-72
2022/04/22 00:50:05;;;;;;;0.30;0.30;;;7.70;99.90;;;7.61;100.00;99593.94;5046519;28;20234;-72
2022/04/22 00:52:33;;;;;;;0.20;0.20;;;7.70;99.90;;;7.58;100.00;99601.81;5035777;28;20203;-73
2022/04/22 00:55:01;;;;;;;0.20;0.20;;;7.60;99.90;;;7.56;100.00;99608.81;5014696;28;20225;-73
2022/04/22 00:57:31;;;;;;;0.20;0.20;;;7.60;99.90;;;7.63;100.00;99612.38;5041634;28;20206;-73
2022/04/22 01:00:01;;;;;;;0.30;0.30;;;7.60;99.90;;;7.67;100.00;99622.03;5032525;28;20210;-72
2022/04/22 01:02:29;;;;;;;0.20;0.20;;;7.60;99.90;;;7.56;100.00;99616.69;5028610;28;20207;-73
2022/04/22 01:10:30;;;;;;;0.20;0.20;;;7.40;99.90;;;7.47;100.00;99616.63;5005798;28;20208;-72
2022/04/22 01:12:58;;;;;;;0.20;0.20;;;7.50;99.90;;;7.40;100.00;99614.81;5006439;28;20223;-73
2022/04/22 01:15:26;;;;;;;0.20;0.20;;;7.50;99.90;;;7.38;100.00;99621.81;5003747;28;20231;-73
2022/04/22 01:17:54;;;;;;;0.20;0.20;;;7.40;99.90;;;7.41;100.00;99631.47;5007763;28;20221;-73
2022/04/22 01:20:22;;;;;;;0.20;0.20;;;7.40;99.90;;;7.35;100.00;99633.19;5020828;28;20204;-73
2022/04/22 01:22:50;;;;;;;0.20;0.20;;;7.40;99.90;;;7.34;100.00;99634.06;5024526;28;20218;-73
2022/04/22 01:25:18;;;;;;;0.20;0.20;;;7.30;99.90;;;7.30;100.00;99640.16;5030221;28;20222;-73
2022/04/22 01:27:51;;;;;;;0.30;0.30;;;7.30;99.90;;;7.26;100.00;99643.63;5038872;28;20261;-71
2022/04/22 01:30:23;;;;;;;0.20;0.20;;;7.30;99.90;;;7.22;100.00;99643.56;5042638;28;20241;-73
2022/04/22 01:32:54;;;;;;;0.20;0.20;;;7.20;99.90;;;7.28;100.00;99646.25;5026339;28;20194;-72
2022/04/22 01:35:24;;;;;;;0.30;0.30;;;7.20;99.90;;;7.25;100.00;99648.88;5033842;28;20238;-73
2022/04/22 01:37:52;;;;;;;0.20;0.20;;;7.20;99.90;;;7.35;100.00;99651.59;5044701;28;20237;-73
2022/04/22 01:40:20;;;;;;;0.20;0.20;;;7.20;99.90;;;7.23;100.00;99642.72;5018800;28;20269;-71
2022/04/22 01:42:48;;;;;;;0.30;0.30;;;7.20;99.90;;;7.14;100.00;99650.50;5042242;28;20214;-72
2022/04/22 01:45:16;;;;;;;0.20;0.20;;;7.20;99.90;;;7.18;100.00;99657.56;5022134;28;20222;-72
2022/04/22 01:47:44;;;;;;;0.30;0.30;;;7.10;99.90;;;7.23;100.00;99669.88;5042442;28;20207;-73
2022/04/22 01:50:12;;;;;;;0.20;0.20;;;7.10;99.90;;;7.20;100.00;99664.59;5038683;28;20238;-72
2022/04/22 01:52:41;;;;;;;0.20;0.20;;;7.10;99.90;;;7.16;100.00;99659.28;5048262;28;20206;-73
2022/04/22 01:55:09;;;;;;;0.20;0.20;;;7.10;99.90;;;7.13;100.00;99662.78;5027383;28;20215;-72
2022/04/22 01:57:38;;;;;;;0.20;0.20;;;7.10;99.90;;;7.16;100.00;99678.56;5026371;28;20198;-72
2022/04/22 02:00:07;;;;;;;0.20;0.20;;;7.10;99.90;;;7.17;100.00;99676.84;5032451;28;20218;-73
2022/04/22 02:02:35;;;;;;;0.20;0.20;;;7.10;99.90;;;7.11;100.00;99680.28;5034649;28;20578;-73
2022/04/22 02:05:05;;;;;;;0.20;0.20;;;7.10;99.90;;;7.05;100.00;99682.84;5025777;28;20552;-73
2022/04/22 02:07:33;;;;;;;0.20;0.20;;;7.00;99.90;;;7.07;100.00;99694.25;5032042;28;20207;-72
2022/04/22 02:10:01;;;;;;;0.20;0.20;;;7.00;99.90;;;7.07;100.00;99697.75;5043695;28;20226;-73
2022/04/22 02:12:29;;;;;;;0.20;0.20;;;7.00;99.90;;;7.05;100.00;99701.25;5049226;28;20198;-73
2022/04/22 02:14:57;;;;;;;0.50;0.50;;;7.00;99.90;;;6.99;100.00;99699.44;5031172;28;20215;-73
2022/04/22 02:17:26;;;;;;;0.30;0.30;;;7.00;99.90;;;7.07;100.00;99708.28;5043771;28;20206;-73
2022/04/22 02:19:54;;;;;;;0.20;0.20;;;7.00;99.90;;;7.04;100.00;99713.50;5048288;28;20222;-72
2022/04/22 02:22:22;;;;;;;0.20;0.20;;;7.00;99.90;;;7.07;100.00;99704.78;5030348;28;20202;-72
2022/04/22 02:24:50;;;;;;;0.20;0.20;;;7.00;99.90;;;7.01;100.00;99718.72;5055235;28;20215;-72
2022/04/22 02:30:05;;;;;;;0.20;0.20;;;7.00;99.90;;;7.07;100.00;99716.16;5040937;28;20242;-72
2022/04/22 02:32:33;;;;;;;0.28;0.28;;;7.00;99.90;;;7.09;100.00;99703.03;5032018;28;20214;-73
2022/04/22 02:35:02;;;;;;;0.20;0.20;;;6.90;99.90;;;6.99;100.00;99709.94;5038540;28;20219;-73
2022/04/22 02:37:29;;;;;;;0.30;0.30;;;6.90;99.90;;;7.00;100.00;99714.34;5037166;28;20207;-72
2022/04/22 02:39:57;;;;;;;0.20;0.20;;;6.90;99.90;;;7.02;100.00;99714.34;5044050;28;20217;-73
2022/04/22 02:45:27;;;;;;;0.20;0.20;;;6.90;99.90;;;6.98;100.00;99716.06;5042504;28;20202;-73
2022/04/22 02:47:56;;;;;;;0.20;0.20;;;6.90;99.90;;;6.95;100.00;99707.25;5044902;28;20202;-71
2022/04/22 02:50:24;;;;;;;0.20;0.20;;;6.90;99.90;;;6.94;100.00;99718.63;5043239;28;20245;-72
2022/04/22 02:52:52;;;;;;;0.20;0.20;;;6.90;99.90;;;6.92;100.00;99721.25;5026848;28;20204;-73
2022/04/22 02:55:20;;;;;;;0.20;0.20;;;6.90;99.90;;;6.90;100.00;99728.22;5046661;28;20234;-73
2022/04/22 02:57:48;;;;;;;0.20;0.20;;;6.80;99.90;;;6.85;100.00;99731.66;5043351;28;20627;-73
2022/04/22 03:00:16;;;;;;;0.20;0.20;;;6.80;99.90;;;6.86;100.00;99736.06;5013909;28;20209;-72
2022/04/22 03:02:44;;;;;;;0.20;0.20;;;6.80;99.90;;;6.86;100.00;99739.56;5023892;28;20454;-73
2022/04/22 03:05:12;;;;;;;0.20;0.20;;;6.80;99.90;;;6.86;100.00;99741.31;5027649;28;20211;-73
2022/04/22 03:07:40;;;;;;;0.20;0.20;;;6.80;99.90;;;6.89;100.00;99741.34;5035350;28;20199;-73
2022/04/22 03:10:08;;;;;;;0.20;0.20;;;6.80;99.90;;;6.83;100.00;99742.16;5038375;28;20243;-72
2022/04/22 03:12:36;;;;;;;0.20;0.20;;;6.80;99.90;;;6.89;100.00;99750.13;5039813;28;20209;-71
2022/04/22 03:15:05;;;;;;;0.20;0.20;;;6.80;99.90;;;6.85;100.00;99748.31;5024308;28;20230;-73
2022/04/22 03:17:33;;;;;;;0.20;0.20;;;6.80;99.90;;;6.92;100.00;99742.28;5040624;28;20206;-72
2022/04/22 03:20:01;;;;;;;0.20;0.20;;;6.80;99.90;;;6.94;100.00;99744.91;5035106;28;20214;-73
2022/04/22 03:22:29;;;;;;;0.30;0.30;;;6.80;99.90;;;6.94;100.00;99758.06;5043877;28;20202;-73
2022/04/22 03:24:56;;;;;;;0.73;0.73;;;6.80;99.90;;;6.92;100.00;99758.03;5036314;28;20605;-74
2022/04/22 03:27:24;;;;;;;0.17;0.17;;;6.80;99.90;;;6.95;100.00;99763.34;5038125;28;20206;-73
2022/04/22 03:29:52;;;;;;;0.20;0.20;;;6.80;99.90;;;6.93;100.00;99758.94;5033725;28;20237;-73
2022/04/22 03:32:20;;;;;;;0.20;0.20;;;6.80;99.90;;;6.91;100.00;99766.78;5041266;28;20199;-73
2022/04/22 03:34:48;;;;;;;0.20;0.20;;;6.80;99.90;;;6.90;100.00;99762.41;5024646;28;20655;-72
2022/04/22 03:37:16;;;;;;;0.20;0.20;;;6.80;99.90;;;6.90;100.00;99767.66;5034578;28;20227;-71
2022/04/22 03:39:44;;;;;;;0.20;0.20;;;6.80;99.90;;;6.99;100.00;99772.16;5042040;28;20218;-73
2022/04/22 03:42:12;;;;;;;0.20;0.20;;;6.80;99.90;;;6.88;100.00;99763.25;5044633;28;20215;-73
2022/04/22 03:44:39;;;;;;;0.20;0.20;;;6.80;99.90;;;6.91;100.00;99769.41;5029431;28;20215;-73
2022/04/22 03:47:07;;;;;;;0.20;0.20;;;6.80;99.90;;;6.88;100.00;99764.13;5043125;28;20223;-73
2022/04/22 03:49:35;;;;;;;0.20;0.20;;;6.80;99.90;;;6.83;100.00;99763.19;5046805;28;20218;-72
2022/04/22 03:52:04;;;;;;;0.20;0.20;;;6.80;99.90;;;6.85;100.00;99771.09;5043909;28;20242;-72
2022/04/22 03:54:32;;;;;;;0.55;0.55;;;6.80;99.90;;;6.83;100.00;99770.19;5054602;28;20595;-73
2022/04/22 03:59:47;;;;;;;0.20;0.20;;;6.80;99.90;;;6.79;100.00;99782.41;5051133;28;20221;-73
2022/04/22 04:02:15;;;;;;;0.20;0.20;;;6.70;99.90;;;6.87;100.00;99787.75;5047052;28;20204;-73
2022/04/22 04:04:43;;;;;;;0.30;0.30;;;6.70;99.90;;;6.88;100.00;99776.38;5043276;28;20214;-73
2022/04/22 04:07:11;;;;;;;0.20;0.20;;;6.80;99.90;;;6.77;100.00;99772.72;5008416;28;20234;-73
2022/04/22 04:17:58;;;;;;;0.20;0.20;;;6.70;99.90;;;6.78;100.00;99785.00;5038373;28;20203;-74
2022/04/22 04:23:16;;;;;;;0.30;0.30;;;6.70;99.90;;;6.70;100.00;99792.78;5025249;28;20217;-74
2022/04/22 04:25:47;;;;;;;0.32;0.32;;;6.60;99.90;;;6.74;100.00;99802.47;5026366;28;20571;-74
2022/04/22 04:28:15;;;;;;;0.22;0.22;;;6.60;99.90;;;6.74;100.00;99791.97;5026979;28;20264;-74
2022/04/22 04:30:44;;;;;;;0.30;0.30;;;6.70;99.90;;;6.71;100.00;99795.44;5028870;28;20247;-74
2022/04/22 04:33:12;;;;;;;0.20;0.20;;;6.70;99.90;;;6.72;100.00;99794.56;5030376;28;20210;-73
2022/04/22 04:35:44;;;;;;;0.20;0.20;;;6.70;99.90;;;6.70;100.00;99798.03;5008484;28;20270;-72
2022/04/22 04:38:13;;;;;;;0.20;0.20;;;6.60;99.90;;;6.69;100.00;99797.16;5020935;28;20203;-74
2022/04/22 04:40:46;;;;;;;0.20;0.20;;;6.60;99.90;;;6.74;100.00;99802.47;5033671;28;20203;-74
2022/04/22 04:43:16;;;;;;;0.70;0.70;;;6.70;99.90;;;6.69;100.00;99796.28;5020445;28;20218;-73
2022/04/22 04:45:45;;;;;;;0.20;0.20;;;6.70;99.90;;;6.65;100.00;99803.22;5022422;28;20229;-74
2022/04/22 04:48:14;;;;;;;0.20;0.20;;;6.60;99.90;;;6.71;100.00;99807.69;5040704;28;20202;-73
2022/04/22 04:50:46;;;;;;;0.20;0.20;;;6.60;99.90;;;6.71;100.00;99807.69;5024254;28;20864;-73
2022/04/22 04:53:14;;;;;;;0.20;0.20;;;6.60;99.90;;;6.65;100.00;99808.47;5004995;28;20203;-72
2022/04/22 04:55:42;;;;;;;0.20;0.20;;;6.60;99.90;;;6.65;100.00;99808.47;5035324;28;20227;-73
2022/04/22 04:58:10;;;;;;;0.20;0.20;;;6.60;99.90;;;6.72;100.00;99814.72;5011992;28;20218;-79
2022/04/22 05:00:39;;;;;;;0.40;0.40;;;6.60;99.90;;;6.70;100.00;99819.06;5033313;28;20207;-74
2022/04/22 05:03:07;;;;;;;0.20;0.20;;;6.60;99.90;;;6.72;100.00;99833.97;5026578;28;20203;-74
2022/04/22 05:05:35;;;;;;;0.20;0.20;;;6.60;99.90;;;6.72;100.00;99830.47;5046317;28;20226;-74
2022/04/22 05:08:05;;;;;;;0.20;0.20;;;6.60;99.90;;;6.73;100.00;99835.75;5043601;28;20222;-73
2022/04/22 05:10:36;;;;;;;0.28;0.28;;;6.70;99.90;;;6.76;100.00;99842.78;5041424;28;20233;-73
2022/04/22 05:13:04;;;;;;;0.20;0.20;;;6.70;99.90;;;6.81;100.00;99837.59;5034321;28;20196;-75
2022/04/22 05:15:33;;;;;;;0.30;0.30;;;6.70;99.90;;;6.84;100.00;99832.41;5042702;28;20233;-74
2022/04/22 05:18:02;;;;;;;0.30;0.30;;;6.70;99.90;;;6.91;100.00;99848.28;5031372;28;20554;-72
2022/04/22 05:20:32;;;;;;;0.20;0.20;;;6.70;99.90;;;6.92;100.00;99851.78;5020955;28;20214;-73
2022/04/22 05:23:01;;;;;;;0.52;0.52;;;6.80;99.90;;;6.93;100.00;99843.91;5027362;28;20202;-73
2022/04/22 05:25:30;;;;;;;0.20;0.20;;;6.80;99.90;;;6.99;100.00;99848.38;5044250;28;20227;-74
2022/04/22 05:27:58;;;;;;;0.50;0.50;;;6.80;99.90;;;6.99;100.00;99843.13;5028657;28;20210;-73
2022/04/22 05:33:12;;;;;;;0.30;0.30;;;6.90;99.90;;;7.10;100.00;99846.78;5049115;28;20211;-74
2022/04/22 05:35:40;;;;;;;0.20;0.20;;;6.90;99.90;;;7.14;100.00;99848.59;5049085;28;20219;-74
2022/04/22 05:38:08;;;;;;;0.20;0.20;;;7.00;99.90;;;7.18;100.00;99845.13;5043214;28;20219;-74
2022/04/22 05:40:38;;;;;;;0.20;0.20;;;7.00;99.90;;;7.26;100.00;99847.88;5039813;28;20285;-73
2022/04/22 05:43:08;;;;;;;0.20;0.20;;;7.10;99.90;;;7.31;100.00;99841.81;5030403;28;20199;-74
2022/04/22 05:45:37;;;;;;;0.20;0.20;;;7.10;99.90;;;7.36;100.00;99841.84;5044797;28;20242;-74
2022/04/22 05:48:06;;;;;;;0.20;0.20;;;7.20;99.90;;;7.44;100.00;99844.59;5028226;28;20215;-73
2022/04/22 05:50:34;;;;;;;0.20;0.20;;;7.20;99.90;;;7.45;100.00;99841.09;5045057;28;20198;-73
2022/04/22 05:53:02;;;;;;;0.20;0.20;;;7.30;99.90;;;7.48;100.00;99830.59;5030473;28;20206;-73
2022/04/22 05:55:30;;;;;;;0.15;0.15;;;7.30;99.90;;;7.56;100.00;99826.31;5043310;28;20237;-71
2022/04/22 05:57:59;;;;;;;0.20;0.20;;;7.40;99.90;;;7.64;100.00;99824.63;5043621;28;20226;-73
2022/04/22 06:00:32;;;;;;;0.20;0.20;;;7.40;99.90;;;7.70;100.00;99820.31;5042897;28;20202;-73
2022/04/22 06:03:01;;;;;;;0.20;0.20;;;7.50;99.90;;;7.76;100.00;99801.09;5046745;28;20210;-74
2022/04/22 06:05:31;;;;;;;0.20;0.20;;;7.50;99.90;;;7.82;100.00;99789.78;5046359;28;20325;-73
2022/04/22 06:10:55;;;;;;;0.20;0.20;;;7.70;99.90;;;8.05;100.00;99772.44;5050607;28;20221;-73
2022/04/22 06:13:23;;;;;;;0.20;0.20;;;7.80;99.90;;;8.10;100.00;99764.56;5045322;28;20202;-74
2022/04/22 06:15:51;;;;;;;0.20;0.20;;;7.90;99.90;;;8.16;100.00;99760.22;5043769;28;20481;-73
2022/04/22 06:18:19;;;;;;;0.20;0.20;;;7.90;99.90;;;8.31;100.00;99760.34;5040264;28;20293;-72
2022/04/22 06:20:48;;;;;;;0.50;0.50;;;8.00;99.90;;;8.35;100.00;99753.38;5041125;28;20214;-72
2022/04/22 06:23:16;;;;;;;0.20;0.20;;;8.10;99.90;;;8.52;100.00;99745.59;5043605;28;20214;-74
2022/04/22 06:25:47;;;;;;;0.20;0.20;;;8.20;99.90;;;8.58;100.00;99725.41;5028787;28;20226;-74
2022/04/22 06:28:15;;;;;;;0.25;0.25;;;8.30;99.90;;;8.62;100.00;99714.03;5045820;28;20215;-73
2022/04/22 06:30:44;;;;;;;0.20;0.20;;;8.40;99.90;;;8.70;100.00;99697.38;5018667;28;20276;-74
2022/04/22 06:33:12;;;;;;;0.20;0.20;;;8.40;99.90;;;8.87;100.00;99691.28;5042481;28;20214;-74
2022/04/22 06:35:41;;;;;;;0.20;0.20;;;8.50;99.90;;;8.87;100.00;99669.31;5043354;28;20218;-73
2022/04/22 06:38:13;;;;;;;0.60;0.60;;;8.60;99.90;;;8.97;100.00;99657.94;5039261;28;20210;-71
2022/04/22 06:46:18;;;;;;;0.20;0.20;;;8.90;99.90;;;9.26;100.00;99626.38;5029420;28;20239;-73
2022/04/22 06:48:47;;;;;;;0.73;0.73;;;9.00;99.90;;;9.24;100.00;99618.47;5048149;28;20210;-73
2022/04/22 06:51:17;;;;;;;0.10;0.10;;;9.00;99.90;;;9.35;100.00;99612.31;5029962;28;20214;-73
2022/04/22 06:53:47;;;;;;;0.20;0.20;;;9.10;99.90;;;9.52;100.00;99605.28;5043940;28;20205;-72
2022/04/22 06:56:22;;;;;;;0.20;0.20;;;9.20;99.90;;;9.62;100.00;99600.00;5027769;28;20257;-73
2022/04/22 06:58:52;;;;;;;0.10;0.10;;;9.30;99.90;;;9.75;100.00;99592.06;5020757;28;20221;-73
2022/04/22 07:01:20;;;;;;;0.40;0.40;;;9.40;99.90;;;9.84;100.00;99584.13;5033748;28;20229;-73
2022/04/22 07:04:09;;;;;;;0.10;0.10;;;9.50;99.90;;;9.74;100.00;99556.88;5034370;28;20215;-73
2022/04/22 07:06:37;;;;;;;0.77;0.77;;;9.50;99.90;;;9.78;100.00;99548.06;5033537;28;20218;-72
2022/04/22 07:09:05;;;;;;;0.20;0.20;;;9.50;99.90;;;10.03;100.00;99554.16;5028440;28;20210;-71
2022/04/22 07:11:35;;;;;;;0.10;0.10;;;9.60;99.90;;;10.15;100.00;99545.31;5032386;28;20235;-72
2022/04/22 07:14:04;;;;;;;0.20;0.20;;;9.80;99.90;;;10.18;100.00;99537.38;5008941;28;20206;-73
2022/04/22 07:16:33;;;;;;;0.15;0.15;;;9.90;99.90;;;10.28;100.00;99541.78;5038196;28;20245;-72
2022/04/22 07:19:01;;;;;;;0.10;0.10;;;9.90;99.90;;;10.21;100.00;99522.41;5040351;28;20211;-73
2022/04/22 07:21:30;;;;;;;0.20;0.20;;;10.00;99.90;;;10.40;100.00;99512.69;5041455;28;20943;-72
2022/04/22 07:23:59;;;;;;;0.20;0.20;;;10.10;99.90;;;10.33;100.00;99480.97;5040747;28;20757;-73
2022/04/22 07:26:27;;;;;;;0.13;0.13;;;10.10;99.90;;;10.60;100.00;99485.25;5030427;28;20222;-73
2022/04/22 07:28:59;;;;;;;0.10;0.10;;;10.20;99.90;;;10.70;100.00;99473.72;5019335;28;20218;-73
2022/04/22 07:31:31;;;;;;;0.10;0.10;;;10.40;99.90;;;10.73;100.00;99460.50;5036938;28;20198;-73
2022/04/22 07:34:00;;;;;;;0.10;0.10;;;10.50;99.90;;;10.73;100.00;99444.63;5032160;28;20210;-73
2022/04/22 07:36:29;;;;;;;0.20;0.20;;;10.50;99.90;;;10.91;100.00;99449.75;5039739;28;20222;-73
2022/04/22 07:38:57;;;;;;;0.20;0.20;;;10.60;99.90;;;10.97;100.00;99443.53;5038376;28;20214;-71
2022/04/22 07:41:29;;;;;;;0.20;0.20;;;10.70;99.90;;;10.97;100.00;99430.31;5038539;28;20198;-73
2022/04/22 07:46:48;;;;;;;0.17;0.17;;;10.80;99.90;;;11.35;100.00;99437.91;5039514;28;20683;-73
2022/04/22 07:49:17;;;;;;;0.10;0.10;;;10.90;99.90;;;11.31;100.00;99396.47;5039158;28;20210;-73
2022/04/22 07:51:45;;;;;;;0.10;0.10;;;11.10;99.90;;;11.41;100.00;99406.06;5051139;28;20585;-73
2022/04/22 07:54:14;;;;;;;0.10;0.10;;;11.20;99.90;;;11.58;100.00;99384.69;5053846;28;20657;-73
2022/04/22 07:56:42;;;;;;;0.20;0.20;;;11.30;99.90;;;11.97;100.00;99383.38;5050420;28;20234;-73
2022/04/22 07:59:11;;;;;;;0.43;0.43;;;11.50;99.90;;;11.61;99.81;99323.75;5051273;28;20214;-73
2022/04/22 08:01:39;;;;;;;0.20;0.20;;;11.60;99.90;;;11.85;100.00;99332.31;5050447;28;20210;-74
2022/04/22 08:04:09;;;;;;;0.10;0.10;;;11.60;99.90;;;11.97;99.98;99335.69;5047984;28;20198;-73
2022/04/22 08:06:38;;;;;;;0.10;0.10;;;11.70;99.90;;;11.96;98.37;99303.03;5052598;28;20234;-73
2022/04/22 08:09:09;;;;;;;0.10;0.10;;;11.80;99.90;;;11.92;99.30;99303.09;5024385;28;20210;-72
2022/04/22 08:11:37;;;;;;;0.10;0.10;;;11.90;99.90;;;12.07;97.33;99295.78;5039978;28;20686;-71
2022/04/22 08:14:05;;;;;;;0.10;0.10;;;12.00;99.90;;;12.23;96.75;99299.09;5040454;28;20217;-72
2022/04/22 08:16:33;;;;;;;0.10;0.10;;;12.10;99.90;;;12.45;96.62;99289.00;5044165;28;20238;-73
2022/04/22 08:19:02;;;;;;;0.10;0.10;;;12.20;99.90;;;12.40;95.88;99274.94;5020875;28;20219;-75
2022/04/22 08:21:33;;;;;;;0.10;0.10;;;12.30;99.90;;;12.36;95.65;99255.56;5035474;28;20206;-78
2022/04/22 08:24:06;;;;;;;0.10;0.10;;;12.30;99.90;;;12.72;94.51;99275.25;5024654;28;20225;-77
2022/04/22 08:26:34;;;;;;;0.77;0.77;;;12.50;99.90;;;12.82;94.73;99245.00;5028224;28;20233;-79
2022/04/22 08:29:03;;;;;;;0.10;0.10;;;12.60;99.90;;;12.49;94.93;99232.38;5022568;28;20226;-77
2022/04/22 08:31:31;;;;;;;0.10;0.10;;;12.60;99.90;;;12.53;93.55;99215.50;5047373;28;20223;-78
2022/04/22 08:34:00;;;;;;;0.20;0.20;;;12.40;99.90;;;12.62;93.51;99220.63;5049844;28;20233;-77
2022/04/22 08:36:30;;;;;;;0.20;0.20;;;12.40;99.90;;;12.69;91.43;99192.22;5034262;28;20226;-76
2022/04/22 08:38:59;;;;;;;0.20;0.20;;;12.60;99.90;;;12.90;92.37;99205.06;5037163;28;20220;-77
2022/04/22 08:41:27;;;;;;;0.10;0.10;;;12.70;99.90;;;12.88;91.35;99182.13;5039338;28;20218;-78
2022/04/22 08:43:56;;;;;;;0.93;0.93;;;12.90;99.90;;;13.13;91.23;99199.31;5041701;28;20210;-78
2022/04/22 08:52:00;;;;;;;0.10;0.10;;;13.00;99.90;;;13.37;90.07;99177.56;5044570;28;20206;-77
2022/04/22 08:54:30;;;;;;;0.20;0.20;;;13.10;99.90;;;13.38;90.05;99165.16;5044006;28;20210;-78
2022/04/22 08:56:59;;;;;;;0.10;0.10;;;13.20;99.90;;;13.04;88.78;99099.53;5045698;28;20598;-77
2022/04/22 08:59:27;;;;;;;0.10;0.10;;;13.10;99.90;;;13.50;87.84;99125.06;5021865;28;20202;-78
2022/04/22 09:01:56;;;;;;;0.10;0.10;;;13.30;99.90;;;13.62;85.71;99079.59;5044668;28;20232;-78
2022/04/22 09:04:26;;;;;;;0.17;0.17;;;13.50;99.90;;;13.45;86.64;99064.09;5036803;28;20265;-78
2022/04/22 09:06:56;;;;;;;0.57;0.57;;;13.50;99.90;;;13.96;85.64;99084.06;5024621;28;20750;-78
2022/04/22 09:09:24;;;;;;;0.60;0.25;;;13.70;99.90;;;13.92;86.19;99066.44;5037252;28;20666;-80
2022/04/22 09:12:14;;;;;;;0.40;0.40;;;13.90;99.90;;;14.14;85.89;99077.38;5032952;28;20214;-85
2022/04/22 09:14:50;;;;;;;0.10;0.10;;;14.10;99.90;;;14.29;85.09;99058.34;5044936;28;20206;-77
2022/04/22 09:17:26;;;;;;;0.40;0.40;;;14.20;99.90;;;14.24;84.53;99039.88;5042830;28;20234;-77
2022/04/22 09:19:57;;;;;;;0.10;0.10;;;14.30;99.90;;;13.77;83.51;98934.88;5049952;28;20214;-81
2022/04/22 09:22:28;;;;;;;0.10;0.10;;;14.30;99.90;;;14.45;83.51;99021.63;5038556;28;20199;-78
2022/04/22 09:25:00;;;;;;;0.20;0.20;;;14.40;99.90;;;14.68;83.63;99011.16;5020115;28;20226;-78
2022/04/22 09:27:48;;;;;;;0.10;0.10;;;14.60;99.90;;;14.50;81.49;98950.53;5008997;28;20204;-81
2022/04/22 09:30:16;;;;;;;0.00;0.00;;;14.70;99.90;;;14.86;82.15;98981.31;5034292;28;20206;-77
2022/04/22 09:32:46;;;;;;;0.10;0.10;;;14.80;99.90;;;15.23;81.07;98988.13;5042334;28;20231;-78
2022/04/22 09:35:24;;;;;;;0.10;0.10;;;15.10;99.90;;;15.18;80.69;98918.19;5044197;28;20218;-79
2022/04/22 09:43:37;;;;;;;0.32;0.32;;;15.40;99.90;;;15.16;79.07;98864.09;5038050;28;20200;-78
2022/04/22 09:46:30;;;;;;;0.10;0.10;;;15.60;99.90;;;15.50;77.28;98869.97;5038354;28;20223;-76
2022/04/22 09:49:00;;;;;;;0.20;0.20;;;15.70;99.90;;;15.70;77.19;98880.00;5029256;28;20206;-76
2022/04/22 09:51:32;;;;;;;0.10;0.10;;;15.60;99.90;;;15.95;76.59;98863.97;5036152;28;20198;-77
2022/04/22 09:54:08;;;;;;;0.10;0.10;;;15.90;99.90;;;15.88;76.71;98834.00;5041187;28;20238;-73
2022/04/22 09:56:38;;;;;;;0.40;0.40;;;16.00;99.90;;;15.24;75.21;98700.47;5037257;28;20436;-78
2022/04/22 09:59:26;;;;;;;0.10;0.10;;;15.90;99.90;;;16.19;77.35;98847.00;5037253;28;20203;-77
2022/04/22 10:01:55;;;;;;;0.22;0.22;;;15.90;99.90;;;16.10;76.51;98795.84;5026817;28;20215;-75
2022/04/22 10:04:34;;;;;;;0.00;0.00;;;16.20;99.90;;;16.17;74.69;98782.19;5046167;28;20202;-78
2022/04/22 10:07:03;;;;;;;0.10;0.10;;;16.20;99.90;;;16.89;74.41;98822.84;5031695;28;20229;-76
2022/04/22 10:09:34;;;;;;;0.20;0.20;;;16.60;99.90;;;16.52;72.97;98730.06;5029221;28;20207;-76
2022/04/22 10:12:10;;;;;;;0.10;0.10;;;16.80;99.90;;;16.46;72.03;98697.44;5029288;28;20220;-75
2022/04/22 10:14:39;;;;;;;0.10;0.10;;;16.60;99.90;;;16.25;72.88;98653.88;5040205;28;20242;-75
2022/04/22 10:17:07;;;;;;;0.38;0.38;;;16.60;99.90;;;16.38;71.85;98655.09;5047817;28;20250;-76
2022/04/22 10:19:36;;;;;;;0.10;0.10;;;16.50;99.90;;;16.97;73.01;98733.56;5044738;28;20198;-76
2022/04/22 10:22:07;;;;;;;0.10;0.10;;;16.70;99.90;;;17.11;72.60;98731.16;5043717;28;20206;-76
2022/04/22 10:24:36;;;;;;;0.10;0.10;;;17.00;99.90;;;16.99;72.11;98673.81;5028479;28;20717;-76
2022/04/22 10:27:07;;;;;;;0.63;0.63;;;17.20;99.90;;;17.06;71.60;98650.38;5044531;28;20229;-76
2022/04/22 10:29:37;;;;;;;0.10;0.10;;;17.30;99.90;;;16.88;70.51;98585.28;5026127;28;20225;-75
2022/04/22 10:32:08;;;;;;;0.00;0.00;;;17.10;99.90;;;16.83;70.79;98568.63;5036846;28;20539;-76
2022/04/22 10:34:40;;;;;;;0.52;0.52;;;17.20;99.90;;;17.02;70.08;98582.88;5056318;28;20234;-76
2022/04/22 10:37:24;;;;;;;0.10;0.10;;;17.20;99.90;;;17.64;71.04;98636.94;5045261;28;20269;-76
2022/04/22 10:39:54;;;;;;;0.80;0.80;;;17.70;99.90;;;17.28;69.20;98534.44;5049033;28;20211;-76
2022/04/22 10:42:34;;;;;;;0.00;0.00;;;17.90;99.90;;;17.84;70.45;98627.03;5049019;28;20206;-76
2022/04/22 10:47:58;;;;;;;0.00;0.00;;;18.00;99.90;;;17.95;70.89;98618.50;5044269;28;20226;-76
2022/04/22 10:50:35;;;;;;;0.00;0.00;;;18.10;99.90;;;17.97;69.17;98568.47;5046493;28;20214;-76
2022/04/22 10:53:09;;;;;;;0.00;0.00;;;18.30;99.90;;;17.92;69.56;98563.34;5016030;28;20202;-75
2022/04/22 10:55:40;;;;;;;0.10;0.10;;;18.30;99.90;;;18.37;70.84;98611.94;5035842;28;20227;-75
2022/04/22 10:58:30;;;;;;;0.00;0.00;;;18.30;99.90;;;17.42;66.97;98384.13;5032095;28;20213;-76
2022/04/22 11:00:57;;;;;;;0.00;0.00;;;18.10;99.90;;;17.83;66.87;98435.47;5048331;28;20218;-75
2022/04/22 11:03:31;;;;;;;0.13;0.13;;;18.20;99.90;;;18.94;68.64;98602.69;5034664;28;20199;-75
2022/04/22 11:06:12;;;;;;;0.00;0.00;;;18.50;99.90;;;18.47;66.75;98476.69;5048428;28;20226;-75
2022/04/22 11:08:41;;;;;;;0.00;0.00;;;18.90;99.90;;;18.58;66.44;98476.97;5034361;28;20203;-75
2022/04/22 11:11:19;;;;;;;0.00;0.00;;;19.00;99.90;;;18.91;66.11;98482.31;5015394;28;20206;-75
2022/04/22 11:13:50;;;;;;;0.00;0.00;;;19.20;99.90;;;18.74;64.99;98407.41;5044341;28;20230;-75
2022/04/22 11:16:25;;;;;;;0.10;0.10;;;19.30;99.90;;;18.76;64.79;98389.47;5044333;28;20226;-73
2022/04/22 11:19:24;;;;;;;0.38;0.38;;;19.40;99.90;;;18.83;65.14;98399.72;5042773;28;20225;-75
2022/04/22 11:21:56;;;;;;;0.10;0.10;;;19.30;99.90;;;18.86;65.86;98406.72;5045343;28;20199;-74
2022/04/22 11:24:33;;;;;;;0.22;0.22;;;19.30;99.90;;;19.16;65.57;98425.53;5046730;28;20198;-75
2022/04/22 11:27:11;;;;;;;0.00;0.00;;;19.50;99.90;;;19.79;66.20;98495.16;5043067;28;20222;-75